Estaire, Canada
Current Conditions -  °F | °C
As of 4:00 AM on Thursday 23 Oct 2014 (Local Time) from CYSB Reporting Station
Clear Clear  
Wind Chill: 26°   Ceiling: Unl
Heat Index: 32°   Visibility: 15mi
Dew Point: 30°   Wind: 6mph
Humidity: 93%   Direction: 20°NNE
Pressure: 30.24"   Gusts: NA
Location:  46.3°N, 80.8°W
Report Text: CYSB 230800Z 02005KT 15SM SKC 00/M01 A3024 RMK SLP253
Loading
Personal Weather Stations






























Interactive Weather Map
Tropical Storm Tracking
New forecast layout! Learn more

10-Day Weather Forecast

Advertisements
Track Severe Weather on mobile